sensor_id;sensor_type;location;lat;lon;timestamp;P1;durP1;ratioP1;P2;durP2;ratioP2
53881;SDS011;39794;55.782;37.452;2023-03-14T00:00:07;6.53;;;2.08;;
53881;SDS011;39794;55.782;37.452;2023-03-14T00:02:38;7.45;;;2.25;;
53881;SDS011;39794;55.782;37.452;2023-03-14T00:05:07;3.05;;;2.13;;
53881;SDS011;39794;55.782;37.452;2023-03-14T00:07:38;4.78;;;2.15;;
53881;SDS011;39794;55.782;37.452;2023-03-14T00:10:08;2.42;;;1.80;;
53881;SDS011;39794;55.782;37.452;2023-03-14T00:12:38;3.05;;;1.80;;
53881;SDS011;39794;55.782;37.452;2023-03-14T00:15:08;2.83;;;1.67;;
53881;SDS011;39794;55.782;37.452;2023-03-14T00:17:38;4.93;;;2.03;;
53881;SDS011;39794;55.782;37.452;2023-03-14T00:20:07;2.15;;;1.70;;
53881;SDS011;39794;55.782;37.452;2023-03-14T00:22:38;4.10;;;2.20;;
53881;SDS011;39794;55.782;37.452;2023-03-14T00:25:09;3.63;;;1.90;;
53881;SDS011;39794;55.782;37.452;2023-03-14T00:27:38;3.60;;;2.13;;
53881;SDS011;39794;55.782;37.452;2023-03-14T00:30:09;4.55;;;1.98;;
53881;SDS011;39794;55.782;37.452;2023-03-14T00:32:39;3.13;;;1.70;;
53881;SDS011;39794;55.782;37.452;2023-03-14T00:35:08;3.70;;;1.90;;
53881;SDS011;39794;55.782;37.452;2023-03-14T00:37:37;2.85;;;1.90;;
53881;SDS011;39794;55.782;37.452;2023-03-14T00:40:06;2.78;;;1.60;;
53881;SDS011;39794;55.782;37.452;2023-03-14T00:42:36;3.45;;;1.73;;
53881;SDS011;39794;55.782;37.452;2023-03-14T00:45:05;2.70;;;1.58;;
53881;SDS011;39794;55.782;37.452;2023-03-14T00:47:37;3.70;;;1.75;;
53881;SDS011;39794;55.782;37.452;2023-03-14T00:50:07;4.55;;;1.90;;
53881;SDS011;39794;55.782;37.452;2023-03-14T00:52:38;2.97;;;1.88;;
53881;SDS011;39794;55.782;37.452;2023-03-14T00:55:06;4.38;;;2.10;;
53881;SDS011;39794;55.782;37.452;2023-03-14T00:57:35;5.60;;;2.15;;
53881;SDS011;39794;55.782;37.452;2023-03-14T01:00:04;3.78;;;1.58;;
53881;SDS011;39794;55.782;37.452;2023-03-14T01:02:35;2.97;;;2.00;;
53881;SDS011;39794;55.782;37.452;2023-03-14T01:05:05;4.43;;;2.45;;
53881;SDS011;39794;55.782;37.452;2023-03-14T01:07:39;3.40;;;2.72;;
53881;SDS011;39794;55.782;37.452;2023-03-14T01:10:08;3.97;;;2.40;;
53881;SDS011;39794;55.782;37.452;2023-03-14T01:12:38;5.47;;;2.80;;
53881;SDS011;39794;55.782;37.452;2023-03-14T01:15:07;6.40;;;2.80;;
53881;SDS011;39794;55.782;37.452;2023-03-14T01:17:38;4.30;;;3.38;;
53881;SDS011;39794;55.782;37.452;2023-03-14T01:20:07;3.45;;;2.50;;
53881;SDS011;39794;55.782;37.452;2023-03-14T01:22:38;3.85;;;2.70;;
53881;SDS011;39794;55.782;37.452;2023-03-14T01:25:08;5.20;;;2.70;;
53881;SDS011;39794;55.782;37.452;2023-03-14T01:27:41;3.67;;;2.15;;
53881;SDS011;39794;55.782;37.452;2023-03-14T01:30:12;4.68;;;2.65;;
53881;SDS011;39794;55.782;37.452;2023-03-14T01:32:44;2.97;;;1.88;;
53881;SDS011;39794;55.782;37.452;2023-03-14T01:35:13;6.95;;;2.33;;
53881;SDS011;39794;55.782;37.452;2023-03-14T01:37:41;3.58;;;2.63;;
53881;SDS011;39794;55.782;37.452;2023-03-14T01:40:16;5.35;;;2.00;;
53881;SDS011;39794;55.782;37.452;2023-03-14T01:42:45;3.38;;;2.35;;
53881;SDS011;39794;55.782;37.452;2023-03-14T01:48:21;4.50;;;2.20;;
53881;SDS011;39794;55.782;37.452;2023-03-14T01:50:50;6.30;;;2.67;;
53881;SDS011;39794;55.782;37.452;2023-03-14T01:53:18;5.40;;;2.65;;
53881;SDS011;39794;55.782;37.452;2023-03-14T01:55:49;3.42;;;2.30;;
53881;SDS011;39794;55.782;37.452;2023-03-14T01:58:18;8.32;;;1.92;;
53881;SDS011;39794;55.782;37.452;2023-03-14T02:00:50;4.25;;;2.45;;
53881;SDS011;39794;55.782;37.452;2023-03-14T02:03:19;5.65;;;2.03;;
53881;SDS011;39794;55.782;37.452;2023-03-14T02:05:51;4.22;;;2.65;;
53881;SDS011;39794;55.782;37.452;2023-03-14T02:08:21;8.35;;;2.72;;
53881;SDS011;39794;55.782;37.452;2023-03-14T02:10:56;3.38;;;2.00;;
53881;SDS011;39794;55.782;37.452;2023-03-14T02:13:50;7.10;;;2.70;;
53881;SDS011;39794;55.782;37.452;2023-03-14T02:16:51;3.80;;;2.00;;
53881;SDS011;39794;55.782;37.452;2023-03-14T02:19:58;3.15;;;2.10;;
53881;SDS011;39794;55.782;37.452;2023-03-14T02:25:12;7.18;;;3.08;;
53881;SDS011;39794;55.782;37.452;2023-03-14T02:27:44;4.35;;;2.60;;
53881;SDS011;39794;55.782;37.452;2023-03-14T02:30:15;4.93;;;2.22;;
53881;SDS011;39794;55.782;37.452;2023-03-14T02:32:48;3.47;;;2.25;;
53881;SDS011;39794;55.782;37.452;2023-03-14T02:35:20;4.00;;;2.78;;
53881;SDS011;39794;55.782;37.452;2023-03-14T02:37:52;4.38;;;2.83;;
53881;SDS011;39794;55.782;37.452;2023-03-14T02:40:25;7.03;;;2.78;;
53881;SDS011;39794;55.782;37.452;2023-03-14T02:42:54;5.82;;;2.83;;
53881;SDS011;39794;55.782;37.452;2023-03-14T02:45:35;6.95;;;3.28;;
53881;SDS011;39794;55.782;37.452;2023-03-14T02:48:13;9.23;;;2.97;;
53881;SDS011;39794;55.782;37.452;2023-03-14T02:50:45;4.23;;;2.90;;
53881;SDS011;39794;55.782;37.452;2023-03-14T02:53:19;4.35;;;2.65;;
53881;SDS011;39794;55.782;37.452;2023-03-14T02:55:50;5.68;;;3.20;;
53881;SDS011;39794;55.782;37.452;2023-03-14T02:58:22;5.97;;;3.30;;
53881;SDS011;39794;55.782;37.452;2023-03-14T03:00:57;6.03;;;3.85;;
53881;SDS011;39794;55.782;37.452;2023-03-14T03:03:26;6.30;;;3.47;;
53881;SDS011;39794;55.782;37.452;2023-03-14T03:05:55;6.68;;;3.60;;
53881;SDS011;39794;55.782;37.452;2023-03-14T03:08:24;7.90;;;4.13;;
53881;SDS011;39794;55.782;37.452;2023-03-14T03:10:56;5.95;;;4.38;;
53881;SDS011;39794;55.782;37.452;2023-03-14T03:13:32;6.07;;;4.38;;
53881;SDS011;39794;55.782;37.452;2023-03-14T03:16:02;6.88;;;3.65;;
53881;SDS011;39794;55.782;37.452;2023-03-14T03:18:33;6.28;;;3.92;;
53881;SDS011;39794;55.782;37.452;2023-03-14T03:21:03;10.02;;;4.10;;
53881;SDS011;39794;55.782;37.452;2023-03-14T03:23:32;5.25;;;3.97;;
53881;SDS011;39794;55.782;37.452;2023-03-14T03:26:00;4.85;;;3.67;;
53881;SDS011;39794;55.782;37.452;2023-03-14T03:28:32;8.32;;;4.45;;
53881;SDS011;39794;55.782;37.452;2023-03-14T03:31:06;6.22;;;4.13;;
53881;SDS011;39794;55.782;37.452;2023-03-14T03:33:36;5.90;;;3.95;;
53881;SDS011;39794;55.782;37.452;2023-03-14T03:36:06;7.07;;;3.80;;
53881;SDS011;39794;55.782;37.452;2023-03-14T03:38:38;5.00;;;3.60;;
53881;SDS011;39794;55.782;37.452;2023-03-14T03:41:10;5.88;;;3.58;;
53881;SDS011;39794;55.782;37.452;2023-03-14T03:43:43;5.10;;;3.63;;
53881;SDS011;39794;55.782;37.452;2023-03-14T03:46:16;7.72;;;4.25;;
53881;SDS011;39794;55.782;37.452;2023-03-14T03:48:45;6.32;;;3.95;;
53881;SDS011;39794;55.782;37.452;2023-03-14T03:51:17;6.53;;;4.05;;
53881;SDS011;39794;55.782;37.452;2023-03-14T03:53:46;7.55;;;4.45;;
53881;SDS011;39794;55.782;37.452;2023-03-14T03:56:19;5.82;;;4.18;;
53881;SDS011;39794;55.782;37.452;2023-03-14T03:58:50;7.47;;;4.60;;
53881;SDS011;39794;55.782;37.452;2023-03-14T04:01:22;9.35;;;5.57;;
53881;SDS011;39794;55.782;37.452;2023-03-14T04:03:54;8.57;;;4.85;;
53881;SDS011;39794;55.782;37.452;2023-03-14T04:06:25;5.25;;;3.63;;
53881;SDS011;39794;55.782;37.452;2023-03-14T04:08:57;8.48;;;4.45;;
53881;SDS011;39794;55.782;37.452;2023-03-14T04:11:46;7.35;;;4.68;;
53881;SDS011;39794;55.782;37.452;2023-03-14T04:14:22;8.27;;;5.70;;
53881;SDS011;39794;55.782;37.452;2023-03-14T04:17:01;9.65;;;5.30;;
53881;SDS011;39794;55.782;37.452;2023-03-14T04:19:32;6.50;;;4.60;;
53881;SDS011;39794;55.782;37.452;2023-03-14T04:22:01;8.88;;;5.32;;
53881;SDS011;39794;55.782;37.452;2023-03-14T04:24:34;7.90;;;5.10;;
53881;SDS011;39794;55.782;37.452;2023-03-14T04:27:03;9.38;;;5.35;;
53881;SDS011;39794;55.782;37.452;2023-03-14T04:29:35;10.45;;;6.07;;
53881;SDS011;39794;55.782;37.452;2023-03-14T04:32:03;5.88;;;4.47;;
53881;SDS011;39794;55.782;37.452;2023-03-14T04:34:35;6.50;;;4.18;;
53881;SDS011;39794;55.782;37.452;2023-03-14T04:37:05;8.13;;;4.00;;
53881;SDS011;39794;55.782;37.452;2023-03-14T04:39:40;7.55;;;4.40;;
53881;SDS011;39794;55.782;37.452;2023-03-14T04:42:16;8.38;;;4.28;;
53881;SDS011;39794;55.782;37.452;2023-03-14T04:44:48;8.73;;;4.80;;
53881;SDS011;39794;55.782;37.452;2023-03-14T04:47:21;7.70;;;4.65;;
53881;SDS011;39794;55.782;37.452;2023-03-14T04:49:50;7.85;;;5.13;;
53881;SDS011;39794;55.782;37.452;2023-03-14T04:52:21;8.07;;;4.57;;
53881;SDS011;39794;55.782;37.452;2023-03-14T04:54:51;6.85;;;4.65;;
53881;SDS011;39794;55.782;37.452;2023-03-14T04:57:21;5.20;;;3.83;;
53881;SDS011;39794;55.782;37.452;2023-03-14T04:59:52;9.05;;;4.65;;
53881;SDS011;39794;55.782;37.452;2023-03-14T05:02:41;7.70;;;4.10;;
53881;SDS011;39794;55.782;37.452;2023-03-14T05:05:27;6.50;;;3.90;;
53881;SDS011;39794;55.782;37.452;2023-03-14T05:08:04;6.65;;;4.30;;
53881;SDS011;39794;55.782;37.452;2023-03-14T05:10:52;8.02;;;4.32;;
53881;SDS011;39794;55.782;37.452;2023-03-14T05:13:40;7.15;;;3.42;;
53881;SDS011;39794;55.782;37.452;2023-03-14T05:16:16;5.68;;;3.58;;
53881;SDS011;39794;55.782;37.452;2023-03-14T05:18:51;11.15;;;4.07;;
53881;SDS011;39794;55.782;37.452;2023-03-14T05:21:43;5.72;;;3.33;;
53881;SDS011;39794;55.782;37.452;2023-03-14T05:24:32;6.90;;;3.53;;
53881;SDS011;39794;55.782;37.452;2023-03-14T05:27:04;7.43;;;3.50;;
53881;SDS011;39794;55.782;37.452;2023-03-14T05:29:52;6.05;;;3.72;;
53881;SDS011;39794;55.782;37.452;2023-03-14T05:32:40;5.97;;;3.83;;
53881;SDS011;39794;55.782;37.452;2023-03-14T05:35:12;5.03;;;3.50;;
53881;SDS011;39794;55.782;37.452;2023-03-14T05:38:03;5.97;;;3.35;;
53881;SDS011;39794;55.782;37.452;2023-03-14T05:40:41;8.15;;;3.17;;
53881;SDS011;39794;55.782;37.452;2023-03-14T05:43:36;6.03;;;3.63;;
53881;SDS011;39794;55.782;37.452;2023-03-14T05:46:21;7.63;;;4.32;;
53881;SDS011;39794;55.782;37.452;2023-03-14T05:49:11;5.15;;;3.50;;
53881;SDS011;39794;55.782;37.452;2023-03-14T05:52:11;5.30;;;2.92;;
53881;SDS011;39794;55.782;37.452;2023-03-14T05:55:06;5.88;;;2.97;;
53881;SDS011;39794;55.782;37.452;2023-03-14T05:57:35;5.85;;;2.65;;
53881;SDS011;39794;55.782;37.452;2023-03-14T06:00:18;4.15;;;2.83;;
53881;SDS011;39794;55.782;37.452;2023-03-14T06:03:08;9.98;;;3.70;;
53881;SDS011;39794;55.782;37.452;2023-03-14T06:05:44;5.07;;;2.63;;
53881;SDS011;39794;55.782;37.452;2023-03-14T06:08:18;5.38;;;3.00;;
53881;SDS011;39794;55.782;37.452;2023-03-14T06:10:46;4.15;;;2.70;;
53881;SDS011;39794;55.782;37.452;2023-03-14T06:13:15;6.32;;;3.20;;
53881;SDS011;39794;55.782;37.452;2023-03-14T06:15:45;5.32;;;2.47;;
53881;SDS011;39794;55.782;37.452;2023-03-14T06:18:14;6.07;;;2.47;;
53881;SDS011;39794;55.782;37.452;2023-03-14T06:20:48;6.63;;;2.92;;
53881;SDS011;39794;55.782;37.452;2023-03-14T06:23:23;5.43;;;3.28;;
53881;SDS011;39794;55.782;37.452;2023-03-14T06:25:53;4.68;;;2.95;;
53881;SDS011;39794;55.782;37.452;2023-03-14T06:28:23;7.03;;;2.75;;
53881;SDS011;39794;55.782;37.452;2023-03-14T06:30:57;6.82;;;3.40;;
53881;SDS011;39794;55.782;37.452;2023-03-14T06:33:31;6.00;;;2.50;;
53881;SDS011;39794;55.782;37.452;2023-03-14T06:36:02;4.28;;;2.53;;
53881;SDS011;39794;55.782;37.452;2023-03-14T06:38:32;4.95;;;2.63;;
53881;SDS011;39794;55.782;37.452;2023-03-14T06:41:05;6.07;;;2.78;;
53881;SDS011;39794;55.782;37.452;2023-03-14T06:43:38;6.25;;;3.33;;
53881;SDS011;39794;55.782;37.452;2023-03-14T06:46:08;7.43;;;3.00;;
53881;SDS011;39794;55.782;37.452;2023-03-14T06:48:39;5.90;;;3.35;;
53881;SDS011;39794;55.782;37.452;2023-03-14T06:51:12;5.22;;;2.60;;
53881;SDS011;39794;55.782;37.452;2023-03-14T06:53:43;5.93;;;2.75;;
53881;SDS011;39794;55.782;37.452;2023-03-14T06:56:14;4.60;;;3.00;;
53881;SDS011;39794;55.782;37.452;2023-03-14T06:58:46;4.88;;;3.03;;
53881;SDS011;39794;55.782;37.452;2023-03-14T07:01:20;3.85;;;2.92;;
53881;SDS011;39794;55.782;37.452;2023-03-14T07:03:51;4.75;;;3.20;;
53881;SDS011;39794;55.782;37.452;2023-03-14T07:06:22;6.85;;;2.95;;
53881;SDS011;39794;55.782;37.452;2023-03-14T07:08:52;5.43;;;3.22;;
53881;SDS011;39794;55.782;37.452;2023-03-14T07:11:23;3.60;;;2.45;;
53881;SDS011;39794;55.782;37.452;2023-03-14T07:13:54;5.10;;;3.00;;
53881;SDS011;39794;55.782;37.452;2023-03-14T07:16:23;6.72;;;2.42;;
53881;SDS011;39794;55.782;37.452;2023-03-14T07:18:55;6.00;;;2.45;;
53881;SDS011;39794;55.782;37.452;2023-03-14T07:21:25;6.88;;;2.97;;
53881;SDS011;39794;55.782;37.452;2023-03-14T07:23:54;6.07;;;2.97;;
53881;SDS011;39794;55.782;37.452;2023-03-14T07:26:23;11.05;;;3.00;;
53881;SDS011;39794;55.782;37.452;2023-03-14T07:28:52;5.50;;;2.78;;
53881;SDS011;39794;55.782;37.452;2023-03-14T07:31:23;4.88;;;2.80;;
53881;SDS011;39794;55.782;37.452;2023-03-14T07:33:52;5.35;;;3.30;;
53881;SDS011;39794;55.782;37.452;2023-03-14T07:36:23;6.13;;;3.45;;
53881;SDS011;39794;55.782;37.452;2023-03-14T07:38:53;9.10;;;3.22;;
53881;SDS011;39794;55.782;37.452;2023-03-14T07:41:50;7.85;;;3.58;;
53881;SDS011;39794;55.782;37.452;2023-03-14T07:44:24;8.77;;;3.70;;
53881;SDS011;39794;55.782;37.452;2023-03-14T07:46:55;7.25;;;3.72;;
53881;SDS011;39794;55.782;37.452;2023-03-14T07:49:24;6.07;;;3.60;;
53881;SDS011;39794;55.782;37.452;2023-03-14T07:51:53;5.32;;;3.70;;
53881;SDS011;39794;55.782;37.452;2023-03-14T07:54:23;10.95;;;3.25;;
53881;SDS011;39794;55.782;37.452;2023-03-14T07:56:51;11.43;;;3.67;;
53881;SDS011;39794;55.782;37.452;2023-03-14T07:59:20;6.75;;;3.28;;
53881;SDS011;39794;55.782;37.452;2023-03-14T08:01:48;2.88;;;2.40;;
53881;SDS011;39794;55.782;37.452;2023-03-14T08:04:17;7.78;;;3.00;;
53881;SDS011;39794;55.782;37.452;2023-03-14T08:06:45;6.38;;;2.80;;
53881;SDS011;39794;55.782;37.452;2023-03-14T08:09:18;7.10;;;3.17;;
53881;SDS011;39794;55.782;37.452;2023-03-14T08:11:48;9.52;;;3.72;;
53881;SDS011;39794;55.782;37.452;2023-03-14T08:14:16;6.97;;;3.33;;
53881;SDS011;39794;55.782;37.452;2023-03-14T08:16:45;4.13;;;2.20;;
53881;SDS011;39794;55.782;37.452;2023-03-14T08:19:13;4.07;;;2.90;;
53881;SDS011;39794;55.782;37.452;2023-03-14T08:21:42;7.65;;;3.15;;
53881;SDS011;39794;55.782;37.452;2023-03-14T08:24:13;9.05;;;3.25;;
53881;SDS011;39794;55.782;37.452;2023-03-14T08:26:42;5.72;;;2.92;;
53881;SDS011;39794;55.782;37.452;2023-03-14T08:29:17;8.10;;;2.92;;
53881;SDS011;39794;55.782;37.452;2023-03-14T08:31:46;6.85;;;3.03;;
53881;SDS011;39794;55.782;37.452;2023-03-14T08:34:15;5.82;;;3.10;;
53881;SDS011;39794;55.782;37.452;2023-03-14T08:36:46;4.70;;;2.85;;
53881;SDS011;39794;55.782;37.452;2023-03-14T08:39:16;7.07;;;3.20;;
53881;SDS011;39794;55.782;37.452;2023-03-14T08:41:46;5.82;;;2.80;;
53881;SDS011;39794;55.782;37.452;2023-03-14T08:44:16;6.78;;;2.90;;
53881;SDS011;39794;55.782;37.452;2023-03-14T08:46:46;6.57;;;3.10;;
53881;SDS011;39794;55.782;37.452;2023-03-14T08:49:18;5.55;;;3.13;;
53881;SDS011;39794;55.782;37.452;2023-03-14T08:51:47;4.15;;;2.55;;
53881;SDS011;39794;55.782;37.452;2023-03-14T08:54:15;5.00;;;2.88;;
53881;SDS011;39794;55.782;37.452;2023-03-14T08:56:44;8.32;;;3.42;;
53881;SDS011;39794;55.782;37.452;2023-03-14T08:59:13;8.40;;;3.10;;
53881;SDS011;39794;55.782;37.452;2023-03-14T09:01:46;5.88;;;2.50;;
53881;SDS011;39794;55.782;37.452;2023-03-14T09:04:14;7.93;;;3.00;;
53881;SDS011;39794;55.782;37.452;2023-03-14T09:06:44;4.15;;;2.63;;
53881;SDS011;39794;55.782;37.452;2023-03-14T09:09:13;6.75;;;2.78;;
53881;SDS011;39794;55.782;37.452;2023-03-14T09:11:42;8.68;;;4.05;;
53881;SDS011;39794;55.782;37.452;2023-03-14T09:14:12;8.18;;;3.55;;
53881;SDS011;39794;55.782;37.452;2023-03-14T09:16:42;6.40;;;3.30;;
53881;SDS011;39794;55.782;37.452;2023-03-14T09:19:14;8.60;;;3.00;;
53881;SDS011;39794;55.782;37.452;2023-03-14T09:21:44;5.97;;;3.00;;
53881;SDS011;39794;55.782;37.452;2023-03-14T09:24:15;6.63;;;3.53;;
53881;SDS011;39794;55.782;37.452;2023-03-14T09:26:44;7.05;;;3.13;;
53881;SDS011;39794;55.782;37.452;2023-03-14T09:29:16;4.65;;;3.08;;
53881;SDS011;39794;55.782;37.452;2023-03-14T09:31:45;7.57;;;3.08;;
53881;SDS011;39794;55.782;37.452;2023-03-14T09:34:16;5.18;;;2.95;;
53881;SDS011;39794;55.782;37.452;2023-03-14T09:36:47;5.03;;;3.10;;
53881;SDS011;39794;55.782;37.452;2023-03-14T09:39:15;3.50;;;2.88;;
53881;SDS011;39794;55.782;37.452;2023-03-14T09:41:44;5.85;;;2.78;;
53881;SDS011;39794;55.782;37.452;2023-03-14T09:44:16;9.93;;;3.45;;
53881;SDS011;39794;55.782;37.452;2023-03-14T09:46:50;4.80;;;2.60;;
53881;SDS011;39794;55.782;37.452;2023-03-14T09:49:21;4.97;;;2.55;;
53881;SDS011;39794;55.782;37.452;2023-03-14T09:51:54;6.15;;;2.60;;
53881;SDS011;39794;55.782;37.452;2023-03-14T09:54:30;5.28;;;3.15;;
53881;SDS011;39794;55.782;37.452;2023-03-14T09:57:00;4.63;;;2.50;;
53881;SDS011;39794;55.782;37.452;2023-03-14T09:59:28;5.55;;;3.08;;
53881;SDS011;39794;55.782;37.452;2023-03-14T10:01:58;8.73;;;3.53;;
53881;SDS011;39794;55.782;37.452;2023-03-14T10:04:30;5.40;;;3.03;;
53881;SDS011;39794;55.782;37.452;2023-03-14T10:07:01;7.78;;;3.13;;
53881;SDS011;39794;55.782;37.452;2023-03-14T10:09:33;5.68;;;3.58;;
53881;SDS011;39794;55.782;37.452;2023-03-14T10:12:03;5.57;;;3.60;;
53881;SDS011;39794;55.782;37.452;2023-03-14T10:14:37;4.75;;;3.22;;
53881;SDS011;39794;55.782;37.452;2023-03-14T10:17:15;6.57;;;3.60;;
53881;SDS011;39794;55.782;37.452;2023-03-14T10:19:52;7.95;;;3.88;;
53881;SDS011;39794;55.782;37.452;2023-03-14T10:22:24;11.27;;;3.72;;
53881;SDS011;39794;55.782;37.452;2023-03-14T10:24:56;9.10;;;3.28;;
53881;SDS011;39794;55.782;37.452;2023-03-14T10:27:29;4.78;;;2.72;;
53881;SDS011;39794;55.782;37.452;2023-03-14T10:29:59;6.05;;;3.50;;
53881;SDS011;39794;55.782;37.452;2023-03-14T10:32:32;9.45;;;4.45;;
53881;SDS011;39794;55.782;37.452;2023-03-14T10:35:11;8.40;;;3.95;;
53881;SDS011;39794;55.782;37.452;2023-03-14T10:37:51;7.82;;;3.25;;
53881;SDS011;39794;55.782;37.452;2023-03-14T10:40:23;9.00;;;3.50;;
53881;SDS011;39794;55.782;37.452;2023-03-14T10:42:54;6.68;;;3.47;;
53881;SDS011;39794;55.782;37.452;2023-03-14T10:45:31;9.85;;;3.90;;
53881;SDS011;39794;55.782;37.452;2023-03-14T10:48:20;6.03;;;2.72;;
53881;SDS011;39794;55.782;37.452;2023-03-14T10:50:54;5.65;;;2.92;;
53881;SDS011;39794;55.782;37.452;2023-03-14T10:53:25;7.07;;;2.92;;
53881;SDS011;39794;55.782;37.452;2023-03-14T10:55:55;6.70;;;3.45;;
53881;SDS011;39794;55.782;37.452;2023-03-14T10:58:28;5.93;;;2.93;;
53881;SDS011;39794;55.782;37.452;2023-03-14T11:01:02;7.53;;;3.13;;
53881;SDS011;39794;55.782;37.452;2023-03-14T11:03:37;4.47;;;3.03;;
53881;SDS011;39794;55.782;37.452;2023-03-14T11:06:13;7.22;;;3.50;;
53881;SDS011;39794;55.782;37.452;2023-03-14T11:08:46;7.28;;;2.90;;
53881;SDS011;39794;55.782;37.452;2023-03-14T11:11:19;5.18;;;2.70;;
53881;SDS011;39794;55.782;37.452;2023-03-14T11:16:38;4.53;;;2.72;;
53881;SDS011;39794;55.782;37.452;2023-03-14T11:19:20;6.72;;;3.03;;
53881;SDS011;39794;55.782;37.452;2023-03-14T11:22:08;9.00;;;3.15;;
53881;SDS011;39794;55.782;37.452;2023-03-14T11:24:52;4.90;;;2.95;;
53881;SDS011;39794;55.782;37.452;2023-03-14T11:27:29;3.60;;;2.67;;
53881;SDS011;39794;55.782;37.452;2023-03-14T11:30:05;5.95;;;3.17;;
53881;SDS011;39794;55.782;37.452;2023-03-14T11:32:44;5.28;;;3.00;;
53881;SDS011;39794;55.782;37.452;2023-03-14T11:35:16;4.97;;;2.85;;
53881;SDS011;39794;55.782;37.452;2023-03-14T11:37:51;4.45;;;2.78;;
53881;SDS011;39794;55.782;37.452;2023-03-14T11:40:22;7.68;;;3.97;;
53881;SDS011;39794;55.782;37.452;2023-03-14T11:42:53;3.92;;;2.97;;
53881;SDS011;39794;55.782;37.452;2023-03-14T11:45:30;4.93;;;2.97;;
53881;SDS011;39794;55.782;37.452;2023-03-14T11:48:09;7.28;;;3.15;;
53881;SDS011;39794;55.782;37.452;2023-03-14T11:50:47;7.60;;;3.38;;
53881;SDS011;39794;55.782;37.452;2023-03-14T11:53:21;6.07;;;2.97;;
53881;SDS011;39794;55.782;37.452;2023-03-14T11:55:52;5.72;;;2.90;;
53881;SDS011;39794;55.782;37.452;2023-03-14T11:58:23;4.05;;;2.90;;
53881;SDS011;39794;55.782;37.452;2023-03-14T12:00:54;6.60;;;2.65;;
53881;SDS011;39794;55.782;37.452;2023-03-14T12:03:24;5.82;;;3.10;;
53881;SDS011;39794;55.782;37.452;2023-03-14T12:05:59;4.45;;;3.05;;
53881;SDS011;39794;55.782;37.452;2023-03-14T12:11:18;4.90;;;2.90;;
53881;SDS011;39794;55.782;37.452;2023-03-14T12:13:54;4.45;;;2.83;;
53881;SDS011;39794;55.782;37.452;2023-03-14T12:22:17;5.25;;;2.30;;
53881;SDS011;39794;55.782;37.452;2023-03-14T12:24:53;6.63;;;3.30;;
53881;SDS011;39794;55.782;37.452;2023-03-14T12:27:45;5.93;;;2.60;;
53881;SDS011;39794;55.782;37.452;2023-03-14T12:30:24;3.97;;;2.55;;
53881;SDS011;39794;55.782;37.452;2023-03-14T12:35:58;3.90;;;2.78;;
53881;SDS011;39794;55.782;37.452;2023-03-14T12:38:30;7.88;;;3.25;;
53881;SDS011;39794;55.782;37.452;2023-03-14T12:41:11;6.65;;;2.97;;
53881;SDS011;39794;55.782;37.452;2023-03-14T12:43:44;5.55;;;2.60;;
53881;SDS011;39794;55.782;37.452;2023-03-14T12:46:22;5.25;;;2.83;;
53881;SDS011;39794;55.782;37.452;2023-03-14T12:48:56;6.88;;;3.55;;
53881;SDS011;39794;55.782;37.452;2023-03-14T12:51:35;4.55;;;2.67;;
53881;SDS011;39794;55.782;37.452;2023-03-14T12:54:16;8.27;;;2.70;;
53881;SDS011;39794;55.782;37.452;2023-03-14T12:56:56;5.88;;;2.90;;
53881;SDS011;39794;55.782;37.452;2023-03-14T12:59:36;5.15;;;3.08;;
53881;SDS011;39794;55.782;37.452;2023-03-14T13:02:14;6.25;;;3.17;;
53881;SDS011;39794;55.782;37.452;2023-03-14T13:04:49;3.97;;;3.00;;
53881;SDS011;39794;55.782;37.452;2023-03-14T13:07:31;5.25;;;3.20;;
53881;SDS011;39794;55.782;37.452;2023-03-14T13:10:09;7.70;;;4.18;;
53881;SDS011;39794;55.782;37.452;2023-03-14T13:12:54;8.93;;;2.97;;
53881;SDS011;39794;55.782;37.452;2023-03-14T13:15:26;5.53;;;3.17;;
53881;SDS011;39794;55.782;37.452;2023-03-14T13:17:59;6.32;;;2.90;;
53881;SDS011;39794;55.782;37.452;2023-03-14T13:20:31;4.57;;;3.00;;
53881;SDS011;39794;55.782;37.452;2023-03-14T13:23:01;5.93;;;2.88;;
53881;SDS011;39794;55.782;37.452;2023-03-14T13:25:30;5.55;;;2.72;;
53881;SDS011;39794;55.782;37.452;2023-03-14T13:28:02;3.63;;;3.13;;
53881;SDS011;39794;55.782;37.452;2023-03-14T13:30:35;7.47;;;3.35;;
53881;SDS011;39794;55.782;37.452;2023-03-14T13:33:11;6.65;;;3.10;;
53881;SDS011;39794;55.782;37.452;2023-03-14T13:35:42;4.05;;;2.80;;
53881;SDS011;39794;55.782;37.452;2023-03-14T13:38:15;4.07;;;3.00;;
53881;SDS011;39794;55.782;37.452;2023-03-14T13:40:46;4.05;;;2.92;;
53881;SDS011;39794;55.782;37.452;2023-03-14T13:43:18;4.18;;;2.85;;
53881;SDS011;39794;55.782;37.452;2023-03-14T13:45:53;4.72;;;3.00;;
53881;SDS011;39794;55.782;37.452;2023-03-14T13:48:25;7.20;;;2.80;;
53881;SDS011;39794;55.782;37.452;2023-03-14T13:50:56;5.15;;;3.00;;
53881;SDS011;39794;55.782;37.452;2023-03-14T13:53:27;4.63;;;2.80;;
53881;SDS011;39794;55.782;37.452;2023-03-14T13:56:00;5.53;;;2.85;;
53881;SDS011;39794;55.782;37.452;2023-03-14T13:58:31;6.93;;;3.20;;
53881;SDS011;39794;55.782;37.452;2023-03-14T14:01:04;6.35;;;3.00;;
53881;SDS011;39794;55.782;37.452;2023-03-14T14:03:34;4.47;;;3.58;;
53881;SDS011;39794;55.782;37.452;2023-03-14T14:06:10;3.90;;;2.72;;
53881;SDS011;39794;55.782;37.452;2023-03-14T14:08:45;7.60;;;2.85;;
53881;SDS011;39794;55.782;37.452;2023-03-14T14:11:18;4.40;;;2.60;;
53881;SDS011;39794;55.782;37.452;2023-03-14T14:14:02;4.47;;;2.47;;
53881;SDS011;39794;55.782;37.452;2023-03-14T14:16:34;6.10;;;2.92;;
53881;SDS011;39794;55.782;37.452;2023-03-14T14:19:04;6.32;;;2.65;;
53881;SDS011;39794;55.782;37.452;2023-03-14T14:21:34;4.53;;;2.85;;
53881;SDS011;39794;55.782;37.452;2023-03-14T14:24:03;7.60;;;3.35;;
53881;SDS011;39794;55.782;37.452;2023-03-14T14:26:39;4.25;;;2.72;;
53881;SDS011;39794;55.782;37.452;2023-03-14T14:29:18;5.80;;;3.22;;
53881;SDS011;39794;55.782;37.452;2023-03-14T14:31:59;5.38;;;2.95;;
53881;SDS011;39794;55.782;37.452;2023-03-14T14:34:30;4.38;;;2.95;;
53881;SDS011;39794;55.782;37.452;2023-03-14T14:37:16;4.20;;;2.47;;
53881;SDS011;39794;55.782;37.452;2023-03-14T14:39:50;6.13;;;2.85;;
53881;SDS011;39794;55.782;37.452;2023-03-14T14:42:21;6.95;;;2.88;;
53881;SDS011;39794;55.782;37.452;2023-03-14T14:44:55;5.93;;;3.03;;
53881;SDS011;39794;55.782;37.452;2023-03-14T14:47:25;6.65;;;2.97;;
53881;SDS011;39794;55.782;37.452;2023-03-14T14:49:58;4.55;;;2.80;;
53881;SDS011;39794;55.782;37.452;2023-03-14T14:52:33;4.18;;;2.67;;
53881;SDS011;39794;55.782;37.452;2023-03-14T14:55:12;4.47;;;3.13;;
53881;SDS011;39794;55.782;37.452;2023-03-14T14:57:48;4.07;;;2.85;;
53881;SDS011;39794;55.782;37.452;2023-03-14T15:00:20;4.22;;;2.67;;
53881;SDS011;39794;55.782;37.452;2023-03-14T15:02:51;4.95;;;2.92;;
53881;SDS011;39794;55.782;37.452;2023-03-14T15:05:22;9.82;;;3.10;;
53881;SDS011;39794;55.782;37.452;2023-03-14T15:07:51;5.65;;;2.85;;
53881;SDS011;39794;55.782;37.452;2023-03-14T15:10:21;4.07;;;2.90;;
53881;SDS011;39794;55.782;37.452;2023-03-14T15:12:51;4.03;;;2.90;;
53881;SDS011;39794;55.782;37.452;2023-03-14T15:15:21;5.70;;;3.47;;
53881;SDS011;39794;55.782;37.452;2023-03-14T15:17:49;5.03;;;2.88;;
53881;SDS011;39794;55.782;37.452;2023-03-14T15:20:19;4.53;;;2.67;;
53881;SDS011;39794;55.782;37.452;2023-03-14T15:22:50;5.22;;;3.20;;
53881;SDS011;39794;55.782;37.452;2023-03-14T15:25:19;5.15;;;2.75;;
53881;SDS011;39794;55.782;37.452;2023-03-14T15:28:13;7.88;;;3.40;;